createdAt,value
2023-05-04T00:01:34.410Z,5.70
2023-05-04T00:04:38.702Z,5.10
2023-05-04T00:07:45.815Z,4.00
2023-05-04T00:10:33.507Z,6.90
2023-05-04T00:13:10.669Z,5.40
2023-05-04T00:15:52.557Z,4.80
2023-05-04T00:19:23.134Z,4.50
2023-05-04T00:22:23.411Z,14.50
2023-05-04T00:25:01.962Z,6.10
2023-05-04T00:27:41.244Z,6.50
2023-05-04T00:30:16.797Z,5.80
2023-05-04T00:32:51.383Z,5.40
2023-05-04T00:35:39.487Z,4.70
2023-05-04T00:38:22.389Z,5.10
2023-05-04T00:41:17.486Z,4.50
2023-05-04T00:44:14.221Z,4.00
2023-05-04T00:47:07.435Z,7.40
2023-05-04T00:56:04.671Z,9.40
2023-05-04T00:58:46.359Z,10.80
2023-05-04T01:01:27.084Z,10.70
2023-05-04T01:04:31.838Z,11.50
2023-05-04T01:07:57.390Z,9.40
2023-05-04T01:10:41.183Z,6.90
2023-05-04T01:13:29.516Z,4.80
2023-05-04T01:16:19.870Z,6.30
2023-05-04T01:19:12.658Z,9.40
2023-05-04T01:21:57.489Z,7.00
2023-05-04T01:24:35.977Z,6.50
2023-05-04T01:27:19.883Z,7.40
2023-05-04T01:30:20.714Z,7.00
2023-05-04T01:33:14.045Z,9.80
2023-05-04T01:36:10.596Z,12.80
2023-05-04T01:38:56.014Z,14.70
2023-05-04T01:42:05.068Z,15.00
2023-05-04T01:44:44.074Z,17.30
2023-05-04T01:47:19.995Z,22.70
2023-05-04T01:49:54.018Z,15.00
2023-05-04T01:52:26.159Z,12.40
2023-05-04T01:55:05.598Z,13.10
2023-05-04T01:57:35.555Z,6.70
2023-05-04T02:00:13.711Z,8.20
2023-05-04T02:02:54.885Z,7.80
2023-05-04T02:05:47.363Z,8.60
2023-05-04T02:08:29.769Z,12.90
2023-05-04T02:11:56.861Z,13.00
2023-05-04T02:14:52.033Z,10.90
2023-05-04T02:17:52.319Z,10.30
2023-05-04T02:20:51.904Z,7.50
2023-05-04T02:23:42.856Z,6.70
2023-05-04T02:26:14.937Z,5.90
2023-05-04T02:28:53.150Z,8.10
2023-05-04T02:31:27.225Z,7.60
2023-05-04T02:34:22.040Z,8.30
2023-05-04T02:36:59.547Z,6.70
2023-05-04T02:39:36.119Z,6.80
2023-05-04T02:42:37.072Z,6.70
2023-05-04T02:45:14.823Z,4.70
2023-05-04T02:48:11.661Z,6.40
2023-05-04T02:50:51.193Z,5.90
2023-05-04T02:54:02.286Z,6.40
2023-05-04T02:56:40.965Z,7.60
2023-05-04T02:59:58.541Z,6.70
2023-05-04T03:02:33.380Z,6.30
2023-05-04T03:05:35.223Z,5.70
2023-05-04T03:08:08.318Z,5.00
2023-05-04T03:13:29.028Z,4.70
2023-05-04T03:17:45.658Z,5.30
2023-05-04T03:20:25.967Z,5.90
2023-05-04T03:23:40.605Z,7.30
2023-05-04T03:26:28.557Z,6.10
2023-05-04T03:29:07.471Z,7.40
2023-05-04T03:31:40.420Z,6.00
2023-05-04T03:34:33.214Z,4.80
2023-05-04T03:37:20.628Z,7.70
2023-05-04T03:40:00.470Z,7.40
2023-05-04T03:43:16.230Z,5.20
2023-05-04T03:46:24.540Z,7.10
2023-05-04T03:49:01.241Z,8.10
2023-05-04T03:51:59.589Z,5.30
2023-05-04T03:54:33.394Z,5.30
2023-05-04T03:57:37.031Z,6.80
2023-05-04T04:04:00.792Z,6.10
2023-05-04T04:11:01.179Z,9.70
2023-05-04T04:13:58.990Z,8.90
2023-05-04T04:17:33.448Z,6.30
2023-05-04T04:20:26.569Z,6.10
2023-05-04T04:23:09.742Z,6.80
2023-05-04T04:26:01.378Z,10.20
2023-05-04T04:28:32.247Z,6.80
2023-05-04T04:34:47.356Z,4.40
2023-05-04T04:48:37.561Z,6.00
2023-05-04T04:56:51.588Z,5.70
2023-05-04T04:59:58.403Z,6.70
2023-05-04T05:03:29.733Z,6.50
2023-05-04T05:06:19.564Z,7.10
2023-05-04T05:12:38.305Z,8.10
2023-05-04T05:19:22.209Z,6.40
2023-05-04T05:22:53.973Z,6.80
2023-05-04T05:35:46.699Z,9.00
2023-05-04T05:36:44.689Z,6.20
2023-05-04T05:50:42.552Z,6.60
2023-05-04T06:02:48.765Z,6.00
2023-05-04T06:06:46.227Z,9.30
2023-05-04T06:09:49.845Z,4.40
2023-05-04T06:22:25.780Z,6.50
2023-05-04T06:25:50.833Z,7.60
2023-05-04T06:37:43.630Z,6.80
2023-05-04T06:41:17.614Z,8.40
2023-05-04T06:44:18.131Z,6.80
2023-05-04T06:47:11.983Z,5.80
2023-05-04T06:49:48.581Z,7.50
2023-05-04T06:52:57.449Z,7.10
2023-05-04T06:55:55.430Z,8.50
2023-05-04T07:02:47.070Z,9.10
2023-05-04T07:05:37.794Z,5.80
2023-05-04T07:13:46.104Z,4.80
2023-05-04T07:22:27.546Z,5.10
2023-05-04T07:30:13.830Z,6.40
2023-05-04T07:33:31.721Z,8.50
2023-05-04T07:36:49.416Z,6.30
2023-05-04T07:39:31.146Z,4.90
2023-05-04T07:46:26.045Z,5.30
2023-05-04T07:49:43.715Z,4.00
2023-05-04T07:52:40.995Z,4.80
2023-05-04T07:56:02.360Z,5.40
2023-05-04T07:58:51.779Z,5.70
2023-05-04T08:01:48.063Z,4.00
2023-05-04T08:04:45.928Z,5.60
2023-05-04T08:07:17.949Z,5.00
2023-05-04T08:10:01.126Z,7.50
2023-05-04T08:13:30.576Z,6.00
2023-05-04T08:17:18.805Z,9.60
2023-05-04T08:20:14.297Z,5.20
2023-05-04T08:24:04.133Z,4.20
2023-05-04T08:28:04.817Z,5.70
2023-05-04T08:30:58.328Z,4.50
2023-05-04T08:34:47.326Z,5.00
2023-05-04T08:46:10.561Z,3.50
2023-05-04T09:16:20.913Z,4.30
2023-05-04T09:19:08.830Z,3.60
2023-05-04T09:22:53.133Z,4.90
2023-05-04T09:25:50.031Z,5.30
2023-05-04T09:40:04.948Z,3.60
2023-05-04T09:43:25.658Z,3.70
2023-05-04T09:56:08.528Z,4.40
2023-05-04T09:59:16.377Z,3.60
2023-05-04T10:02:38.336Z,3.90
2023-05-04T10:05:22.838Z,3.90
2023-05-04T10:08:58.778Z,4.00
2023-05-04T10:16:23.804Z,4.00
2023-05-04T10:19:32.560Z,5.10
2023-05-04T10:23:14.106Z,4.20
2023-05-04T10:27:24.130Z,4.10
2023-05-04T10:52:28.548Z,4.80
2023-05-04T10:55:45.329Z,5.60
2023-05-04T11:07:59.390Z,3.90
2023-05-04T11:11:23.521Z,3.30
2023-05-04T11:14:14.437Z,4.40
2023-05-04T11:18:09.232Z,3.60
2023-05-04T11:25:37.193Z,6.60
2023-05-04T11:33:46.195Z,7.10
2023-05-04T11:36:50.035Z,3.30
2023-05-04T11:43:45.317Z,3.70
2023-05-04T11:51:51.308Z,3.30
2023-05-04T12:02:16.376Z,5.10
2023-05-04T12:05:25.386Z,5.00
2023-05-04T12:08:49.910Z,5.20
2023-05-04T12:11:43.212Z,7.00
2023-05-04T12:14:35.081Z,4.20
2023-05-04T12:18:40.429Z,5.20
2023-05-04T12:22:35.129Z,4.70
2023-05-04T12:26:05.974Z,5.40
2023-05-04T12:29:10.593Z,3.70
2023-05-04T12:32:46.657Z,4.40
2023-05-04T12:36:40.464Z,5.30
2023-05-04T12:45:27.520Z,4.30
2023-05-04T12:48:29.163Z,5.00
2023-05-04T12:51:28.044Z,2.90
2023-05-04T12:55:24.693Z,3.10
2023-05-04T12:59:16.909Z,4.40
2023-05-04T13:02:19.803Z,7.60
2023-05-04T13:14:42.949Z,4.90
2023-05-04T13:17:58.178Z,5.30
2023-05-04T13:20:56.109Z,4.80
2023-05-04T13:23:39.508Z,7.00
2023-05-04T13:26:36.990Z,3.80
2023-05-04T13:46:39.751Z,5.30
2023-05-04T13:49:34.090Z,5.50
2023-05-04T13:52:47.307Z,3.30
2023-05-04T13:56:14.554Z,5.40
2023-05-04T13:59:58.386Z,4.30
2023-05-04T14:04:09.038Z,4.70
2023-05-04T14:07:29.467Z,5.00
2023-05-04T14:11:37.621Z,4.20
2023-05-04T14:14:41.136Z,6.50
2023-05-04T14:17:21.924Z,3.90
2023-05-04T14:21:07.959Z,4.70
2023-05-04T14:24:22.641Z,6.10
2023-05-04T14:27:36.595Z,4.80
2023-05-04T14:35:10.932Z,3.30
2023-05-04T14:38:05.860Z,3.50
2023-05-04T14:40:45.479Z,3.40
2023-05-04T14:48:03.490Z,4.20
2023-05-04T14:51:07.652Z,6.60
2023-05-04T14:54:22.122Z,4.50
2023-05-04T15:07:14.752Z,3.00
2023-05-04T15:10:15.707Z,6.60
2023-05-04T15:13:45.009Z,8.00
2023-05-04T15:16:48.366Z,6.70
2023-05-04T15:19:59.413Z,4.30
2023-05-04T15:24:04.906Z,4.40
2023-05-04T15:27:06.492Z,2.10
2023-05-04T15:30:02.790Z,3.00
2023-05-04T15:45:12.096Z,3.70
2023-05-04T16:13:07.636Z,3.20
2023-05-04T16:16:17.067Z,5.40
2023-05-04T16:24:29.735Z,3.50
2023-05-04T16:27:29.740Z,3.50
2023-05-04T16:31:00.426Z,5.00
2023-05-04T16:34:37.036Z,3.80
2023-05-04T16:42:05.194Z,6.30
2023-05-04T16:44:54.473Z,6.00
2023-05-04T16:47:53.783Z,4.30
2023-05-04T16:59:25.291Z,6.00
2023-05-04T17:02:26.213Z,5.60
2023-05-04T17:10:46.260Z,6.50
2023-05-04T17:39:33.203Z,4.20
2023-05-04T17:57:59.359Z,4.20
2023-05-04T18:01:39.705Z,4.50
2023-05-04T18:05:26.690Z,6.30
2023-05-04T18:12:24.161Z,5.20
2023-05-04T18:15:48.948Z,8.40
2023-05-04T18:19:55.757Z,4.30
2023-05-04T18:28:25.677Z,4.70
2023-05-04T18:50:28.492Z,5.80
2023-05-04T18:54:26.374Z,6.10
2023-05-04T18:57:57.140Z,6.30
2023-05-04T19:00:56.240Z,5.90
2023-05-04T19:08:18.708Z,6.80
2023-05-04T19:11:19.762Z,5.70
2023-05-04T19:14:15.880Z,7.40
2023-05-04T19:30:24.581Z,7.30
2023-05-04T19:33:45.022Z,8.20
2023-05-04T19:44:22.533Z,6.00
2023-05-04T19:50:47.338Z,6.00
2023-05-04T19:54:33.846Z,6.40
2023-05-04T19:57:30.896Z,5.60
2023-05-04T20:00:26.068Z,5.60
2023-05-04T20:07:50.731Z,5.90
2023-05-04T20:15:54.976Z,5.40
2023-05-04T20:19:25.641Z,4.90
2023-05-04T20:22:25.630Z,6.00
2023-05-04T20:25:23.819Z,6.20
2023-05-04T20:28:09.370Z,9.80
2023-05-04T20:31:12.083Z,7.00
2023-05-04T20:39:21.184Z,11.90
2023-05-04T20:42:46.253Z,9.20
2023-05-04T20:45:56.869Z,9.40
2023-05-04T20:49:57.504Z,5.90
2023-05-04T20:53:08.050Z,6.50
2023-05-04T20:56:10.678Z,5.50
2023-05-04T20:59:59.168Z,8.00
2023-05-04T21:04:00.188Z,5.10
2023-05-04T21:06:48.351Z,5.70
2023-05-04T21:09:51.671Z,5.30
2023-05-04T21:12:29.141Z,6.80
2023-05-04T21:20:04.544Z,4.70
2023-05-04T21:22:38.381Z,7.00
2023-05-04T21:25:52.083Z,7.10
2023-05-04T21:28:35.726Z,5.30
2023-05-04T21:31:26.189Z,5.90
2023-05-04T21:34:25.862Z,5.80
2023-05-04T21:36:56.918Z,5.80
2023-05-04T21:40:24.707Z,5.90
2023-05-04T21:42:57.630Z,7.60
2023-05-04T21:45:38.979Z,9.20
2023-05-04T21:48:16.610Z,5.50
2023-05-04T21:51:20.504Z,6.80
2023-05-04T21:54:47.803Z,6.70
2023-05-04T21:57:19.577Z,7.30
2023-05-04T22:00:50.469Z,6.90
2023-05-04T22:03:23.569Z,11.40
2023-05-04T22:07:11.501Z,6.00
2023-05-04T22:09:46.551Z,6.30
2023-05-04T22:13:02.522Z,6.30
2023-05-04T22:16:03.440Z,6.50
2023-05-04T22:19:06.548Z,6.60
2023-05-04T22:24:39.214Z,7.70
2023-05-04T22:27:20.037Z,7.70
2023-05-04T22:29:59.062Z,6.80
2023-05-04T22:32:35.623Z,7.60
2023-05-04T22:35:33.432Z,8.10
2023-05-04T22:38:14.856Z,7.90
2023-05-04T22:41:42.527Z,7.10
2023-05-04T22:44:33.988Z,6.90
2023-05-04T22:47:18.714Z,5.50
2023-05-04T22:50:16.897Z,5.70
2023-05-04T22:53:05.561Z,5.30
2023-05-04T22:55:50.358Z,8.60
2023-05-04T22:59:21.053Z,6.30
2023-05-04T23:02:02.694Z,6.30
2023-05-04T23:04:47.049Z,7.20
2023-05-04T23:07:32.284Z,6.60
2023-05-04T23:10:13.819Z,6.50
2023-05-04T23:12:50.080Z,6.10
2023-05-04T23:15:46.080Z,9.70
2023-05-04T23:18:20.932Z,6.60
2023-05-04T23:21:13.500Z,5.70
2023-05-04T23:24:00.226Z,6.00
2023-05-04T23:26:39.151Z,5.30
2023-05-04T23:29:20.164Z,5.40
2023-05-04T23:31:57.871Z,4.40
2023-05-04T23:34:30.701Z,4.90
2023-05-04T23:37:09.526Z,4.90
2023-05-04T23:39:42.822Z,5.70
2023-05-04T23:42:18.929Z,5.90
2023-05-04T23:44:54.678Z,6.20
2023-05-04T23:48:12.630Z,4.20
2023-05-04T23:51:14.274Z,4.70
2023-05-04T23:54:09.635Z,6.50
2023-05-04T23:56:43.199Z,5.20
2023-05-04T23:59:32.402Z,4.60
